Time;durP1;ratioP1;P1;durP2;ratioP2;P2;SDS_P1;SDS_P2;PMS_P1;PMS_P2;Temp;Humidity;BMP_temperature;BMP_pressure;BME280_temperature;BME280_humidity;BME280_pressure;Samples;Min_cycle;Max_cycle;Signal;HPM_P1;HPM_P2
2021/07/01 00:01:01;;;;;;;0.68;0.40;;;26.40;49.50;;;;;;5063743;28;20094;-55
2021/07/01 00:03:27;;;;;;;0.47;0.40;;;26.40;49.60;;;;;;5045503;28;20029;-60
2021/07/01 00:05:52;;;;;;;0.30;0.30;;;26.30;49.50;;;;;;5048302;28;20021;-59
2021/07/01 00:08:18;;;;;;;0.85;0.30;;;26.30;49.50;;;;;;5042221;28;20052;-57
2021/07/01 00:10:43;;;;;;;0.85;0.40;;;26.30;49.50;;;;;;5044671;28;20407;-56
2021/07/01 00:13:09;;;;;;;0.63;0.30;;;26.30;49.50;;;;;;5047525;28;20467;-58
2021/07/01 00:15:35;;;;;;;0.63;0.40;;;26.30;49.60;;;;;;5046597;28;20056;-58
2021/07/01 00:18:01;;;;;;;0.63;0.38;;;26.30;49.60;;;;;;5023904;28;20117;-59
2021/07/01 00:20:28;;;;;;;0.30;0.30;;;26.30;49.60;;;;;;5028754;28;20041;-55
2021/07/01 00:22:54;;;;;;;0.38;0.30;;;26.30;49.60;;;;;;5045956;28;20051;-56
2021/07/01 00:25:20;;;;;;;0.77;0.40;;;26.20;49.60;;;;;;5047549;28;20071;-58
2021/07/01 00:27:46;;;;;;;0.57;0.32;;;26.20;49.60;;;;;;5047263;28;20028;-54
2021/07/01 00:30:15;;;;;;;0.30;0.30;;;26.20;49.60;;;;;;5047655;28;20025;-60
2021/07/01 00:32:41;;;;;;;0.57;0.40;;;26.20;49.60;;;;;;5041187;28;20028;-60
2021/07/01 00:35:08;;;;;;;0.32;0.32;;;26.20;49.60;;;;;;5046574;28;20040;-55
2021/07/01 00:37:34;;;;;;;0.32;0.30;;;26.20;49.70;;;;;;5040670;28;20037;-58
2021/07/01 00:40:05;;;;;;;1.33;0.38;;;26.10;49.60;;;;;;5045802;28;20031;-59
2021/07/01 00:42:31;;;;;;;0.30;0.30;;;26.20;49.70;;;;;;5027750;28;20026;-56
2021/07/01 00:44:56;;;;;;;0.80;0.32;;;26.10;49.70;;;;;;5046615;28;20036;-60
2021/07/01 00:47:23;;;;;;;0.30;0.30;;;26.10;49.70;;;;;;5046312;28;20114;-57
2021/07/01 00:49:49;;;;;;;0.35;0.30;;;26.10;49.70;;;;;;5048271;28;20041;-61
2021/07/01 00:52:14;;;;;;;0.22;0.22;;;26.10;49.70;;;;;;5045949;28;20040;-54
2021/07/01 00:54:42;;;;;;;1.83;0.40;;;26.10;49.70;;;;;;5047370;28;20016;-59
2021/07/01 00:57:11;;;;;;;0.25;0.25;;;26.10;49.70;;;;;;5047206;28;20025;-57
2021/07/01 00:59:37;;;;;;;;;;;26.10;50.30;;;;;;5048200;28;20025;-56
2021/07/01 01:02:06;;;;;;;0.40;0.40;;;26.10;49.80;;;;;;5045632;28;19965;-61
2021/07/01 01:04:33;;;;;;;0.55;0.30;;;26.10;49.70;;;;;;5046304;28;20028;-56
2021/07/01 01:06:59;;;;;;;0.30;0.30;;;26.10;49.80;;;;;;5046073;28;20025;-58
2021/07/01 01:09:25;;;;;;;0.98;0.30;;;26.00;49.70;;;;;;5046152;28;20032;-59
2021/07/01 01:11:50;;;;;;;0.40;0.40;;;26.10;49.80;;;;;;5046237;28;20475;-58
2021/07/01 01:14:16;;;;;;;0.30;0.30;;;26.00;49.70;;;;;;5046811;28;20033;-55
2021/07/01 01:16:41;;;;;;;0.28;0.28;;;26.00;49.80;;;;;;5046193;28;20044;-58
2021/07/01 01:19:07;;;;;;;0.60;0.32;;;26.00;49.80;;;;;;5047387;28;20137;-58
2021/07/01 01:21:33;;;;;;;0.65;0.30;;;26.00;49.80;;;;;;5047586;28;20481;-58
2021/07/01 01:24:00;;;;;;;0.30;0.30;;;26.00;50.30;;;;;;5046219;28;20029;-59
2021/07/01 01:26:26;;;;;;;0.40;0.40;;;26.00;49.80;;;;;;5045231;28;20391;-58
2021/07/01 01:28:53;;;;;;;0.50;0.32;;;26.00;49.80;;;;;;5045624;28;20029;-56
2021/07/01 01:31:19;;;;;;;0.45;0.40;;;26.00;49.90;;;;;;5047078;28;20483;-58
2021/07/01 01:33:45;;;;;;;0.68;0.40;;;26.00;49.90;;;;;;5048816;28;20025;-59
2021/07/01 01:36:10;;;;;;;0.30;0.30;;;26.00;49.90;;;;;;5045185;28;20167;-55
2021/07/01 01:38:36;;;;;;;0.38;0.30;;;25.90;49.80;;;;;;5046621;28;20108;-57
2021/07/01 01:41:03;;;;;;;0.45;0.40;;;25.90;49.80;;;;;;5047748;28;20033;-55
2021/07/01 01:43:28;;;;;;;0.47;0.40;;;25.90;50.40;;;;;;5043169;28;20029;-55
2021/07/01 01:45:54;;;;;;;0.30;0.30;;;25.90;49.80;;;;;;5042104;28;20058;-59
2021/07/01 01:48:21;;;;;;;0.40;0.32;;;25.90;49.80;;;;;;5045430;28;20567;-56
2021/07/01 01:50:46;;;;;;;0.30;0.30;;;25.90;49.90;;;;;;5052662;28;20425;-52
2021/07/01 01:53:13;;;;;;;0.50;0.30;;;25.90;49.90;;;;;;5055211;28;20131;-53
2021/07/01 01:55:39;;;;;;;0.30;0.30;;;25.90;49.90;;;;;;5046404;28;20024;-57
2021/07/01 01:58:05;;;;;;;0.30;0.30;;;25.90;50.40;;;;;;5039663;28;20033;-55
2021/07/01 02:00:32;;;;;;;0.28;0.28;;;25.90;49.90;;;;;;5032356;28;20090;-56
2021/07/01 02:03:00;;;;;;;0.57;0.40;;;25.80;49.80;;;;;;5035721;28;20051;-58
2021/07/01 02:05:26;;;;;;;0.43;0.40;;;25.80;49.90;;;;;;5044441;28;20353;-55
2021/07/01 02:07:52;;;;;;;0.30;0.30;;;25.90;50.00;;;;;;5041078;28;20071;-55
2021/07/01 02:10:17;;;;;;;0.38;0.38;;;25.80;49.90;;;;;;5046867;28;20044;-59
2021/07/01 02:12:43;;;;;;;0.32;0.32;;;25.90;50.00;;;;;;5044740;28;20091;-55
2021/07/01 02:15:11;;;;;;;0.30;0.30;;;25.80;49.90;;;;;;5044236;28;20457;-57
2021/07/01 02:17:37;;;;;;;0.20;0.20;;;25.80;49.90;;;;;;5042950;28;20099;-57
2021/07/01 02:20:11;;;;;;;0.30;0.30;;;25.80;49.90;;;;;;5045750;28;20151;-57
2021/07/01 02:22:37;;;;;;;0.40;0.30;;;25.80;49.90;;;;;;5043965;28;20036;-59
2021/07/01 02:25:04;;;;;;;0.30;0.30;;;25.80;49.90;;;;;;5045701;28;20028;-57
2021/07/01 02:27:30;;;;;;;0.32;0.30;;;25.80;50.00;;;;;;5043927;28;20104;-58
2021/07/01 02:29:56;;;;;;;0.63;0.40;;;25.80;50.00;;;;;;5044603;28;20112;-56
2021/07/01 02:32:22;;;;;;;0.20;0.20;;;25.70;49.90;;;;;;5043495;28;20418;-58
2021/07/01 02:34:48;;;;;;;0.38;0.30;;;25.80;50.00;;;;;;5044110;28;20128;-57
2021/07/01 02:37:14;;;;;;;0.30;0.28;;;25.80;50.00;;;;;;5043228;28;20021;-57
2021/07/01 02:39:39;;;;;;;0.40;0.40;;;25.70;50.00;;;;;;5046024;28;20429;-56
2021/07/01 02:42:06;;;;;;;0.30;0.30;;;25.70;49.90;;;;;;5044699;28;20056;-59
2021/07/01 02:44:32;;;;;;;0.30;0.30;;;25.70;50.00;;;;;;5043554;28;20037;-57
2021/07/01 02:46:57;;;;;;;0.30;0.30;;;25.70;50.00;;;;;;5041840;28;20054;-55
2021/07/01 02:49:23;;;;;;;0.30;0.30;;;25.70;50.00;;;;;;5043797;28;20032;-53
2021/07/01 02:51:48;;;;;;;1.15;0.43;;;25.70;50.00;;;;;;5044537;28;20036;-60
2021/07/01 02:54:15;;;;;;;0.35;0.30;;;25.70;50.10;;;;;;5043291;28;20056;-58
2021/07/01 02:56:41;;;;;;;0.30;0.30;;;25.70;50.00;;;;;;5038927;28;20418;-56
2021/07/01 02:59:13;;;;;;;0.30;0.30;;;25.70;50.00;;;;;;5036425;28;20047;-59
2021/07/01 03:01:39;;;;;;;0.65;0.50;;;25.70;50.00;;;;;;5056825;28;20037;-59
2021/07/01 03:04:05;;;;;;;0.30;0.30;;;25.70;50.00;;;;;;5063599;28;20467;-59
2021/07/01 03:06:31;;;;;;;0.28;0.28;;;25.70;50.10;;;;;;5064565;28;20075;-55
2021/07/01 03:08:58;;;;;;;0.55;0.40;;;25.70;50.10;;;;;;5063762;28;20047;-55
2021/07/01 03:11:25;;;;;;;0.40;0.40;;;25.60;50.00;;;;;;5065718;28;20434;-56
2021/07/01 03:13:51;;;;;;;0.47;0.40;;;25.60;50.00;;;;;;5062973;28;20385;-55
2021/07/01 03:16:19;;;;;;;0.40;0.40;;;25.60;50.30;;;;;;5063936;28;20029;-57
2021/07/01 03:18:49;;;;;;;0.35;0.32;;;25.60;50.00;;;;;;5063655;28;20467;-59
2021/07/01 03:21:15;;;;;;;0.38;0.38;;;25.60;50.00;;;;;;5064398;28;20033;-62
2021/07/01 03:23:41;;;;;;;0.47;0.47;;;25.60;50.10;;;;;;5063077;28;20040;-60
2021/07/01 03:26:07;;;;;;;0.40;0.30;;;25.60;50.10;;;;;;5064254;28;20123;-58
2021/07/01 03:28:33;;;;;;;0.30;0.30;;;25.60;50.10;;;;;;5064699;28;20090;-55
2021/07/01 03:30:59;;;;;;;0.57;0.40;;;25.60;50.10;;;;;;5056540;28;20045;-56
2021/07/01 03:33:25;;;;;;;0.25;0.25;;;25.60;50.10;;;;;;5044602;28;20035;-62
2021/07/01 03:35:51;;;;;;;0.32;0.32;;;25.60;50.10;;;;;;5042813;28;20032;-59
2021/07/01 03:38:16;;;;;;;0.60;0.40;;;25.60;50.10;;;;;;5036272;28;20105;-60
2021/07/01 03:40:42;;;;;;;0.40;0.40;;;25.60;50.10;;;;;;5043941;28;20041;-54
2021/07/01 03:43:08;;;;;;;0.30;0.30;;;25.60;50.10;;;;;;5045200;28;20025;-60
2021/07/01 03:45:33;;;;;;;0.30;0.30;;;25.60;50.10;;;;;;5039375;28;20164;-55
2021/07/01 03:47:59;;;;;;;0.28;0.28;;;25.60;50.10;;;;;;5040653;28;20444;-57
2021/07/01 03:50:25;;;;;;;0.40;0.40;;;25.50;50.10;;;;;;5040569;28;20033;-59
2021/07/01 03:52:50;;;;;;;0.43;0.40;;;25.50;50.10;;;;;;5043684;28;20029;-57
2021/07/01 03:55:18;;;;;;;0.47;0.30;;;25.50;50.10;;;;;;5043311;28;20025;-57
2021/07/01 03:57:45;;;;;;;0.28;0.28;;;25.50;50.10;;;;;;5043408;28;20067;-55
2021/07/01 04:00:11;;;;;;;0.32;0.30;;;25.50;50.10;;;;;;5043816;28;20128;-58
2021/07/01 04:02:37;;;;;;;0.40;0.40;;;25.50;50.10;;;;;;5060715;28;20044;-57
2021/07/01 04:05:03;;;;;;;0.40;0.30;;;25.50;50.10;;;;;;5060317;28;20024;-58
2021/07/01 04:07:29;;;;;;;0.63;0.40;;;25.50;50.10;;;;;;5051437;28;20414;-58
2021/07/01 04:09:54;;;;;;;0.30;0.30;;;25.50;50.10;;;;;;5068483;28;20086;-60
2021/07/01 04:12:20;;;;;;;0.30;0.30;;;25.50;50.10;;;;;;5066470;28;20032;-59
2021/07/01 04:14:45;;;;;;;0.30;0.30;;;25.50;50.20;;;;;;5065509;28;20347;-58
2021/07/01 04:17:11;;;;;;;0.40;0.40;;;25.50;50.10;;;;;;5066114;28;20027;-54
2021/07/01 04:19:37;;;;;;;0.30;0.30;;;25.50;50.10;;;;;;5067811;28;20293;-59
2021/07/01 04:22:02;;;;;;;0.43;0.30;;;25.50;50.20;;;;;;5066528;28;20424;-56
2021/07/01 04:24:28;;;;;;;0.30;0.30;;;25.50;50.10;;;;;;5062467;28;20059;-59
2021/07/01 04:26:54;;;;;;;0.30;0.30;;;25.40;50.10;;;;;;5062715;28;20024;-57
2021/07/01 04:29:20;;;;;;;0.30;0.30;;;25.40;50.00;;;;;;5066924;28;20313;-58
2021/07/01 04:31:46;;;;;;;0.40;0.40;;;25.40;50.10;;;;;;5051437;28;20040;-58
2021/07/01 04:34:12;;;;;;;0.30;0.30;;;25.40;50.10;;;;;;5042581;28;20055;-56
2021/07/01 04:36:37;;;;;;;0.30;0.30;;;25.40;50.10;;;;;;5045977;28;20107;-58
2021/07/01 04:39:04;;;;;;;0.30;0.30;;;25.40;50.10;;;;;;5033832;28;20025;-55
2021/07/01 04:41:30;;;;;;;0.50;0.40;;;25.40;50.00;;;;;;5039496;28;20033;-59
2021/07/01 04:43:55;;;;;;;0.30;0.30;;;25.40;50.00;;;;;;5043434;28;20564;-58
2021/07/01 04:46:22;;;;;;;0.40;0.40;;;25.40;50.10;;;;;;5043831;28;20495;-56
2021/07/01 04:48:50;;;;;;;0.30;0.30;;;25.40;50.10;;;;;;5040088;28;20388;-60
2021/07/01 04:51:16;;;;;;;0.43;0.40;;;25.40;50.00;;;;;;5054322;28;20109;-57
2021/07/01 04:53:41;;;;;;;0.90;0.80;;;25.40;49.70;;;;;;5052374;28;20016;-57
2021/07/01 04:56:08;;;;;;;2.60;1.10;;;25.10;46.30;;;;;;5044037;28;20040;-55
2021/07/01 04:58:34;;;;;;;17.35;1.50;;;24.70;46.30;;;;;;5043467;28;20021;-58
2021/07/01 05:00:59;;;;;;;1.02;0.80;;;24.30;46.50;;;;;;5040239;28;20047;-55
2021/07/01 05:03:25;;;;;;;1.40;1.00;;;23.90;46.80;;;;;;5042389;28;20474;-61
2021/07/01 05:05:50;;;;;;;1.25;0.88;;;23.70;47.70;;;;;;5045193;28;20225;-61
2021/07/01 05:08:16;;;;;;;1.33;0.90;;;23.50;48.30;;;;;;5043872;28;20024;-60
2021/07/01 05:10:42;;;;;;;2.45;0.93;;;23.30;48.70;;;;;;5043788;28;20151;-59
2021/07/01 05:13:08;;;;;;;1.50;0.82;;;23.30;49.10;;;;;;5049618;28;20475;-62
2021/07/01 05:15:33;;;;;;;1.30;0.90;;;23.40;49.50;;;;;;5047881;28;20464;-56
2021/07/01 05:18:01;;;;;;;1.63;0.95;;;23.50;49.50;;;;;;5049115;28;20033;-57
2021/07/01 05:20:27;;;;;;;1.10;0.70;;;23.60;49.40;;;;;;5047282;28;20050;-60
2021/07/01 05:22:52;;;;;;;1.45;1.00;;;23.60;49.30;;;;;;5040832;28;20080;-61
2021/07/01 05:25:18;;;;;;;1.25;0.70;;;23.60;49.10;;;;;;5051466;28;20110;-61
2021/07/01 05:27:44;;;;;;;1.52;0.80;;;23.70;49.20;;;;;;5047836;28;20032;-61
2021/07/01 05:30:10;;;;;;;1.15;0.80;;;23.70;49.10;;;;;;5050311;28;20036;-60
2021/07/01 05:32:36;;;;;;;1.13;0.70;;;23.80;49.20;;;;;;5068396;28;20036;-61
2021/07/01 05:35:02;;;;;;;2.03;0.90;;;23.80;49.10;;;;;;5066328;28;20023;-61
2021/07/01 05:37:27;;;;;;;1.95;0.80;;;23.80;49.00;;;;;;5067611;28;20102;-62
2021/07/01 05:39:53;;;;;;;1.13;0.80;;;23.70;49.30;;;;;;5067206;28;20067;-61
2021/07/01 05:42:18;;;;;;;1.40;0.95;;;23.80;49.20;;;;;;5067108;28;20036;-60
2021/07/01 05:44:44;;;;;;;3.88;0.90;;;23.80;49.10;;;;;;5058212;28;20037;-62
2021/07/01 05:47:10;;;;;;;0.93;0.70;;;23.70;49.00;;;;;;5066372;28;20028;-61
2021/07/01 05:49:35;;;;;;;1.63;0.73;;;23.70;48.80;;;;;;5066828;28;20060;-59
2021/07/01 05:52:02;;;;;;;1.30;0.80;;;23.70;49.00;;;;;;5063918;28;20464;-60
2021/07/01 05:56:57;;;;;;;1.13;0.80;;;23.50;49.00;;;;;;5064153;28;20020;-59
2021/07/01 05:59:23;;;;;;;0.73;0.68;;;23.50;48.70;;;;;;5064138;28;20029;-57
2021/07/01 06:01:48;;;;;;;1.10;0.80;;;23.50;48.70;;;;;;5047406;28;20322;-61
2021/07/01 06:04:14;;;;;;;0.57;0.57;;;23.50;48.80;;;;;;5044238;28;20634;-60
2021/07/01 06:06:47;;;;;;;0.82;0.70;;;23.50;48.70;;;;;;5045359;28;20131;-60
2021/07/01 06:09:15;;;;;;;1.58;0.70;;;23.50;49.10;;;;;;5044398;28;20032;-59
2021/07/01 06:11:42;;;;;;;0.70;0.70;;;23.50;48.80;;;;;;5043369;28;20483;-57
2021/07/01 06:14:07;;;;;;;1.00;0.80;;;23.60;48.90;;;;;;5044450;28;20025;-60
2021/07/01 06:16:36;;;;;;;0.50;0.50;;;23.60;48.70;;;;;;5043791;28;20025;-60
2021/07/01 06:19:04;;;;;;;0.70;0.70;;;23.60;48.60;;;;;;5044504;28;20021;-59
2021/07/01 06:21:31;;;;;;;0.52;0.52;;;23.60;48.60;;;;;;5045313;28;20049;-58
2021/07/01 06:23:57;;;;;;;0.80;0.65;;;23.60;48.70;;;;;;5043830;28;20178;-59
2021/07/01 06:26:28;;;;;;;1.25;0.70;;;23.60;48.70;;;;;;5043387;28;20183;-58
2021/07/01 06:28:55;;;;;;;0.65;0.63;;;23.60;49.20;;;;;;5045365;28;20033;-59
2021/07/01 06:31:21;;;;;;;1.13;0.70;;;23.60;49.20;;;;;;5055308;28;20049;-59
2021/07/01 06:33:47;;;;;;;1.00;0.63;;;23.60;49.60;;;;;;5060164;28;20037;-59
2021/07/01 06:36:14;;;;;;;0.70;0.60;;;23.60;49.30;;;;;;5065129;28;20068;-59
2021/07/01 06:38:45;;;;;;;0.70;0.70;;;23.70;49.30;;;;;;5065316;28;20166;-59
2021/07/01 06:41:12;;;;;;;0.80;0.70;;;23.80;49.30;;;;;;5064643;28;20390;-60
2021/07/01 06:43:41;;;;;;;0.75;0.60;;;23.90;49.20;;;;;;5063844;28;20490;-59
2021/07/01 06:46:08;;;;;;;0.98;0.60;;;23.90;49.20;;;;;;5060714;28;20103;-60
2021/07/01 06:48:35;;;;;;;1.73;0.80;;;24.00;49.30;;;;;;5063138;28;20085;-59
2021/07/01 06:51:03;;;;;;;0.60;0.50;;;24.00;49.30;;;;;;5065460;28;20533;-60
2021/07/01 06:53:29;;;;;;;0.80;0.70;;;24.00;49.40;;;;;;5061467;28;20356;-61
2021/07/01 06:55:55;;;;;;;0.70;0.52;;;24.10;49.40;;;;;;5061725;28;20447;-60
2021/07/01 06:58:21;;;;;;;0.68;0.50;;;24.20;49.40;;;;;;5063674;28;20025;-61
2021/07/01 07:00:48;;;;;;;1.00;0.60;;;24.20;49.40;;;;;;5058368;28;20045;-61
2021/07/01 07:03:19;;;;;;;0.75;0.60;;;24.20;49.40;;;;;;5042722;28;20612;-60
2021/07/01 07:05:47;;;;;;;0.77;0.60;;;24.20;49.30;;;;;;5045634;28;20060;-59
2021/07/01 07:08:14;;;;;;;0.50;0.50;;;24.30;49.30;;;;;;5044123;28;20025;-59
2021/07/01 07:10:42;;;;;;;0.60;0.60;;;24.30;49.40;;;;;;5044958;28;20073;-59
2021/07/01 07:13:08;;;;;;;0.57;0.57;;;24.40;49.30;;;;;;5044156;28;20112;-58
2021/07/01 07:15:34;;;;;;;0.50;0.50;;;24.40;49.30;;;;;;5044843;28;20033;-61
2021/07/01 07:18:19;;;;;;;1.13;0.70;;;24.40;49.20;;;;;;5042686;28;20041;-60
2021/07/01 07:20:51;;;;;;;0.50;0.50;;;24.40;49.20;;;;;;5038798;28;20029;-60
2021/07/01 07:23:20;;;;;;;0.55;0.45;;;24.50;49.20;;;;;;5043816;28;20063;-60
2021/07/01 07:25:46;;;;;;;0.80;0.60;;;24.50;49.20;;;;;;5043616;28;20055;-61
2021/07/01 07:28:12;;;;;;;0.68;0.60;;;24.50;49.10;;;;;;5035139;28;20030;-56
2021/07/01 07:30:39;;;;;;;0.50;0.50;;;24.60;49.10;;;;;;5063516;28;20040;-60
2021/07/01 07:33:07;;;;;;;0.50;0.50;;;24.60;49.00;;;;;;5060517;28;20029;-61
2021/07/01 07:35:34;;;;;;;1.05;0.60;;;24.60;49.10;;;;;;5066634;28;20036;-60
2021/07/01 07:38:00;;;;;;;0.50;0.50;;;24.60;49.00;;;;;;5067230;28;20063;-59
2021/07/01 07:40:29;;;;;;;0.50;0.50;;;24.60;48.90;;;;;;5068688;28;20546;-60
2021/07/01 07:42:55;;;;;;;1.77;0.60;;;24.70;49.00;;;;;;5067946;28;20046;-60
2021/07/01 07:45:21;;;;;;;0.52;0.52;;;24.70;49.00;;;;;;5067037;28;20445;-59
2021/07/01 07:47:47;;;;;;;0.88;0.50;;;24.80;49.00;;;;;;5066796;28;20167;-60
2021/07/01 07:50:14;;;;;;;0.50;0.50;;;24.80;48.90;;;;;;5067038;28;20364;-60
2021/07/01 07:52:45;;;;;;;0.57;0.55;;;24.80;48.90;;;;;;5067857;28;20032;-59
2021/07/01 07:55:14;;;;;;;0.63;0.50;;;24.80;48.90;;;;;;5067677;28;20029;-60
2021/07/01 07:57:42;;;;;;;0.50;0.50;;;24.80;48.80;;;;;;5065890;28;20032;-59
2021/07/01 08:00:09;;;;;;;0.50;0.50;;;24.80;48.80;;;;;;5064443;28;20120;-58
2021/07/01 08:02:43;;;;;;;0.52;0.52;;;24.90;48.80;;;;;;5046088;28;20056;-59
2021/07/01 08:05:09;;;;;;;1.25;0.52;;;24.90;48.70;;;;;;5049977;28;20374;-60
2021/07/01 08:07:40;;;;;;;0.63;0.50;;;24.90;48.80;;;;;;5036697;28;20048;-58
2021/07/01 08:10:11;;;;;;;0.50;0.50;;;25.00;48.70;;;;;;5043526;28;20107;-59
2021/07/01 08:12:41;;;;;;;0.65;0.50;;;25.00;48.60;;;;;;5045734;28;20029;-58
2021/07/01 08:15:18;;;;;;;0.60;0.60;;;25.00;48.60;;;;;;5046289;28;20028;-59
2021/07/01 08:17:44;;;;;;;0.50;0.50;;;25.00;48.60;;;;;;5035893;28;20025;-59
2021/07/01 08:20:13;;;;;;;0.60;0.60;;;25.10;48.60;;;;;;5039598;28;20110;-59
2021/07/01 08:22:44;;;;;;;0.52;0.52;;;25.00;48.60;;;;;;5046940;28;20492;-60
2021/07/01 08:25:11;;;;;;;0.60;0.50;;;25.10;48.60;;;;;;5047281;28;20075;-56
2021/07/01 08:27:38;;;;;;;0.55;0.55;;;25.10;48.60;;;;;;5047535;28;20371;-59
2021/07/01 08:30:06;;;;;;;0.40;0.40;;;25.10;48.50;;;;;;5045670;28;20044;-58
2021/07/01 08:32:32;;;;;;;0.55;0.50;;;25.10;48.50;;;;;;5046157;28;20037;-59
2021/07/01 08:35:01;;;;;;;1.02;0.70;;;25.10;48.40;;;;;;5045259;28;20124;-60
2021/07/01 08:37:29;;;;;;;0.60;0.50;;;25.20;48.40;;;;;;5046253;28;20468;-59
2021/07/01 08:39:58;;;;;;;1.05;0.60;;;25.20;48.40;;;;;;5044175;28;20032;-60
2021/07/01 08:42:25;;;;;;;0.73;0.50;;;25.20;48.40;;;;;;5046884;28;20094;-58
2021/07/01 08:45:02;;;;;;;0.50;0.50;;;25.20;48.30;;;;;;5043623;28;20040;-57
2021/07/01 08:47:31;;;;;;;0.57;0.50;;;25.30;48.40;;;;;;5044657;28;20133;-58
2021/07/01 08:50:06;;;;;;;0.47;0.43;;;25.30;48.30;;;;;;5045214;28;20028;-60
2021/07/01 08:52:33;;;;;;;0.50;0.50;;;25.30;48.30;;;;;;5045310;28;20032;-58
2021/07/01 08:54:59;;;;;;;0.50;0.50;;;25.30;48.30;;;;;;5046321;28;20029;-58
2021/07/01 08:57:28;;;;;;;0.47;0.40;;;25.30;48.20;;;;;;5047290;28;20365;-59
2021/07/01 09:00:06;;;;;;;0.82;0.60;;;25.40;48.30;;;;;;5046299;28;20471;-60
2021/07/01 09:02:43;;;;;;;0.77;0.60;;;25.40;48.20;;;;;;5044316;28;20444;-58
2021/07/01 09:05:13;;;;;;;0.80;0.60;;;25.40;48.20;;;;;;5040119;28;20061;-57
2021/07/01 09:07:40;;;;;;;0.50;0.50;;;25.40;48.20;;;;;;5036077;28;20086;-60
2021/07/01 09:10:15;;;;;;;0.52;0.50;;;25.40;48.20;;;;;;5047344;28;20948;-59
2021/07/01 09:12:47;;;;;;;0.43;0.43;;;25.40;48.20;;;;;;5040054;28;20063;-62
2021/07/01 09:15:13;;;;;;;0.57;0.50;;;25.40;48.10;;;;;;5045610;28;20029;-58
2021/07/01 09:17:47;;;;;;;0.40;0.40;;;25.40;48.10;;;;;;5044641;28;20511;-60
2021/07/01 09:20:20;;;;;;;0.70;0.60;;;25.50;48.10;;;;;;5043450;28;20040;-60
2021/07/01 09:22:47;;;;;;;0.85;0.63;;;25.50;48.10;;;;;;5044141;28;20028;-60
2021/07/01 09:25:15;;;;;;;0.80;0.50;;;25.50;48.00;;;;;;5043588;28;20037;-58
2021/07/01 09:27:43;;;;;;;0.95;0.50;;;25.50;48.00;;;;;;5046358;28;20053;-59
2021/07/01 09:30:11;;;;;;;0.40;0.40;;;25.50;48.00;;;;;;5046467;28;20029;-59
2021/07/01 09:32:37;;;;;;;0.70;0.50;;;25.60;48.20;;;;;;5045351;28;20017;-59
2021/07/01 09:35:04;;;;;;;0.50;0.50;;;25.60;48.00;;;;;;5043429;28;20058;-60
2021/07/01 09:37:44;;;;;;;0.60;0.60;;;25.60;48.00;;;;;;5044737;28;20025;-57
2021/07/01 09:40:12;;;;;;;0.47;0.47;;;25.60;48.00;;;;;;5048447;28;20075;-60
2021/07/01 09:42:39;;;;;;;0.50;0.50;;;25.60;48.00;;;;;;5042101;28;20044;-56
2021/07/01 09:45:08;;;;;;;0.43;0.43;;;25.60;47.90;;;;;;5045585;28;20065;-58
2021/07/01 09:47:37;;;;;;;0.50;0.50;;;25.60;47.90;;;;;;5047324;28;20108;-59
2021/07/01 09:50:05;;;;;;;0.60;0.52;;;25.70;48.00;;;;;;5046072;28;20163;-59
2021/07/01 09:52:37;;;;;;;0.85;0.70;;;25.70;48.00;;;;;;5047507;28;20077;-59
2021/07/01 09:55:04;;;;;;;0.55;0.55;;;25.70;47.90;;;;;;5047297;28;20021;-57
2021/07/01 09:57:35;;;;;;;0.50;0.50;;;25.70;48.00;;;;;;5049043;28;20094;-59
2021/07/01 10:00:08;;;;;;;0.50;0.50;;;25.70;48.00;;;;;;5043398;28;20032;-55
2021/07/01 10:02:33;;;;;;;0.60;0.52;;;25.70;47.90;;;;;;5054608;28;20048;-59
2021/07/01 10:04:59;;;;;;;0.50;0.50;;;25.70;48.40;;;;;;5065122;28;20051;-60
2021/07/01 10:07:26;;;;;;;0.63;0.60;;;25.70;47.90;;;;;;5066892;28;20115;-57
2021/07/01 10:09:54;;;;;;;0.80;0.52;;;25.80;47.90;;;;;;5062359;28;20410;-60
2021/07/01 10:12:23;;;;;;;0.50;0.50;;;25.80;47.90;;;;;;5065032;28;20511;-58
2021/07/01 10:14:51;;;;;;;0.50;0.50;;;25.80;47.90;;;;;;5064475;28;20039;-55
2021/07/01 10:17:21;;;;;;;0.65;0.60;;;25.80;47.90;;;;;;5065010;28;20028;-61
2021/07/01 10:19:47;;;;;;;0.68;0.60;;;25.80;47.90;;;;;;5063346;28;20032;-58
2021/07/01 10:22:19;;;;;;;0.45;0.45;;;25.80;47.90;;;;;;5063311;28;20128;-59
2021/07/01 10:24:58;;;;;;;0.60;0.50;;;25.80;47.80;;;;;;5062269;28;20111;-57
2021/07/01 10:27:28;;;;;;;0.63;0.52;;;25.90;47.90;;;;;;5063428;28;20036;-55
2021/07/01 10:29:57;;;;;;;0.50;0.50;;;25.90;48.40;;;;;;5064129;28;20410;-58
2021/07/01 10:32:39;;;;;;;0.47;0.47;;;25.90;47.90;;;;;;5045385;28;20048;-57
2021/07/01 10:35:22;;;;;;;0.40;0.40;;;25.90;47.90;;;;;;5031294;28;20106;-59
2021/07/01 10:37:59;;;;;;;0.40;0.40;;;25.90;47.80;;;;;;5045240;28;20121;-59
2021/07/01 10:40:25;;;;;;;0.50;0.50;;;25.90;47.80;;;;;;5040279;28;20103;-60
2021/07/01 10:42:52;;;;;;;0.50;0.50;;;25.90;47.90;;;;;;5047100;28;20033;-60
2021/07/01 10:45:18;;;;;;;1.05;0.40;;;25.90;48.00;;;;;;5048490;28;20025;-59
2021/07/01 10:47:46;;;;;;;0.52;0.50;;;26.00;47.80;;;;;;5049781;28;20120;-60
2021/07/01 10:50:25;;;;;;;0.60;0.50;;;26.00;47.70;;;;;;5046616;28;20802;-58
2021/07/01 10:52:51;;;;;;;0.77;0.60;;;26.00;47.70;;;;;;5048884;28;20033;-57
2021/07/01 10:55:17;;;;;;;0.50;0.50;;;26.00;47.70;;;;;;5054091;28;20086;-59
2021/07/01 10:58:15;;;;;;;1.25;0.60;;;26.00;47.70;;;;;;5056968;28;20460;-61
2021/07/01 11:00:45;;;;;;;0.60;0.60;;;26.00;47.70;;;;;;5052844;28;20116;-61
2021/07/01 11:03:19;;;;;;;0.82;0.60;;;26.00;47.70;;;;;;5042836;28;20029;-61
2021/07/01 11:05:45;;;;;;;0.50;0.50;;;26.10;47.80;;;;;;5048748;28;20088;-57
2021/07/01 11:08:23;;;;;;;0.82;0.50;;;26.00;47.70;;;;;;5049911;28;20441;-59
2021/07/01 11:10:49;;;;;;;0.60;0.60;;;26.10;47.70;;;;;;5054267;28;20424;-60
2021/07/01 11:13:15;;;;;;;0.50;0.50;;;26.10;47.70;;;;;;5051806;28;20051;-62
2021/07/01 11:16:01;;;;;;;0.98;0.60;;;26.10;47.70;;;;;;5053742;28;20539;-62
2021/07/01 11:18:53;;;;;;;0.93;0.50;;;26.10;47.70;;;;;;5050763;28;20043;-61
2021/07/01 11:21:20;;;;;;;0.60;0.60;;;26.10;47.70;;;;;;5046698;28;20040;-59
2021/07/01 11:23:49;;;;;;;0.57;0.43;;;26.10;47.70;;;;;;5052141;28;20039;-59
2021/07/01 11:26:32;;;;;;;0.60;0.50;;;26.10;47.70;;;;;;5051387;28;20035;-59
2021/07/01 11:29:02;;;;;;;0.55;0.55;;;26.10;47.70;;;;;;5049474;28;20106;-58
2021/07/01 11:31:33;;;;;;;1.13;0.47;;;26.10;47.70;;;;;;5048167;28;20377;-59
2021/07/01 11:33:59;;;;;;;0.77;0.50;;;26.10;47.70;;;;;;5040191;28;20284;-59
2021/07/01 11:36:25;;;;;;;0.50;0.50;;;26.10;47.70;;;;;;5046162;28;20136;-59
2021/07/01 11:38:50;;;;;;;0.60;0.60;;;26.20;48.20;;;;;;5046484;28;20029;-59
2021/07/01 11:41:17;;;;;;;0.73;0.50;;;26.20;47.70;;;;;;5069128;28;20036;-61
2021/07/01 11:43:44;;;;;;;0.40;0.40;;;26.20;47.70;;;;;;5076987;28;20100;-61
2021/07/01 11:46:10;;;;;;;0.63;0.50;;;26.20;47.70;;;;;;5066085;28;20120;-61
2021/07/01 11:48:37;;;;;;;0.60;0.50;;;26.20;47.70;;;;;;5062049;28;20039;-60
2021/07/01 11:51:05;;;;;;;0.70;0.60;;;26.20;47.60;;;;;;5065089;28;20110;-58
2021/07/01 11:53:31;;;;;;;0.65;0.50;;;26.20;47.60;;;;;;5066535;28;20054;-60
2021/07/01 11:56:00;;;;;;;0.50;0.50;;;26.30;47.60;;;;;;5067293;28;20037;-62
2021/07/01 11:58:27;;;;;;;0.55;0.50;;;26.30;47.60;;;;;;5064357;28;20737;-61
2021/07/01 12:00:55;;;;;;;1.15;0.50;;;26.30;47.70;;;;;;5063192;28;20475;-60
2021/07/01 12:03:21;;;;;;;0.75;0.60;;;26.30;47.70;;;;;;5066927;28;20039;-61
2021/07/01 12:05:52;;;;;;;0.60;0.60;;;26.30;47.70;;;;;;5064935;28;20093;-60
2021/07/01 12:08:18;;;;;;;0.40;0.40;;;26.30;47.70;;;;;;5069937;28;20082;-62
2021/07/01 12:10:44;;;;;;;1.00;0.60;;;26.30;47.70;;;;;;5069091;28;20083;-60
2021/07/01 12:13:31;;;;;;;0.80;0.70;;;26.30;47.60;;;;;;5069151;28;20475;-61
2021/07/01 12:16:11;;;;;;;0.73;0.70;;;26.30;47.60;;;;;;5050926;28;20091;-61
2021/07/01 12:18:49;;;;;;;0.50;0.50;;;26.30;47.60;;;;;;5068094;28;20044;-61
2021/07/01 12:21:22;;;;;;;0.52;0.52;;;26.40;47.70;;;;;;5078842;28;20035;-60
2021/07/01 12:23:51;;;;;;;0.60;0.52;;;26.40;47.60;;;;;;5067594;28;20107;-61
2021/07/01 12:26:37;;;;;;;0.95;0.63;;;26.40;47.60;;;;;;5065305;28;20024;-60
2021/07/01 12:29:09;;;;;;;0.50;0.50;;;26.40;47.70;;;;;;5066532;28;20121;-60
2021/07/01 12:31:36;;;;;;;1.13;0.50;;;26.40;48.20;;;;;;5062432;28;20128;-60
2021/07/01 12:34:05;;;;;;;0.50;0.50;;;26.40;47.70;;;;;;5065305;28;20033;-60
2021/07/01 12:36:33;;;;;;;0.50;0.50;;;26.40;47.70;;;;;;5068196;28;20087;-59
2021/07/01 12:39:05;;;;;;;0.50;0.50;;;26.40;47.80;;;;;;5064568;28;20466;-60
2021/07/01 12:41:35;;;;;;;0.50;0.50;;;26.40;47.80;;;;;;5064829;28;20456;-60
2021/07/01 12:44:07;;;;;;;0.60;0.60;;;26.40;47.70;;;;;;5066019;28;20415;-59
2021/07/01 12:46:47;;;;;;;0.70;0.52;;;26.40;47.80;;;;;;5067571;28;20029;-59
2021/07/01 12:49:22;;;;;;;0.60;0.60;;;26.40;47.70;;;;;;5062697;28;20155;-60
2021/07/01 12:51:58;;;;;;;0.50;0.50;;;26.40;47.80;;;;;;5068607;28;20800;-59
2021/07/01 12:54:26;;;;;;;0.52;0.50;;;26.40;47.80;;;;;;5064832;28;20067;-59